sensor_id;sensor_type;location;lat;lon;timestamp;P1;durP1;ratioP1;P2;durP2;ratioP2
11827;SDS011;5971;49.646;8.568;2023-08-12T00:00:39;6.88;;;4.35;;
11827;SDS011;5971;49.646;8.568;2023-08-12T00:03:41;6.68;;;4.20;;
11827;SDS011;5971;49.646;8.568;2023-08-12T00:06:43;5.82;;;3.88;;
11827;SDS011;5971;49.646;8.568;2023-08-12T00:09:44;7.22;;;4.20;;
11827;SDS011;5971;49.646;8.568;2023-08-12T00:12:45;7.47;;;4.65;;
11827;SDS011;5971;49.646;8.568;2023-08-12T00:15:47;6.80;;;4.88;;
11827;SDS011;5971;49.646;8.568;2023-08-12T00:18:48;6.03;;;3.90;;
11827;SDS011;5971;49.646;8.568;2023-08-12T00:21:50;8.23;;;4.97;;
11827;SDS011;5971;49.646;8.568;2023-08-12T00:24:53;6.10;;;4.00;;
11827;SDS011;5971;49.646;8.568;2023-08-12T00:27:54;7.25;;;4.88;;
11827;SDS011;5971;49.646;8.568;2023-08-12T00:30:56;6.03;;;4.35;;
11827;SDS011;5971;49.646;8.568;2023-08-12T00:33:57;6.38;;;4.22;;
11827;SDS011;5971;49.646;8.568;2023-08-12T00:36:59;6.57;;;4.47;;
11827;SDS011;5971;49.646;8.568;2023-08-12T00:40:00;7.25;;;4.70;;
11827;SDS011;5971;49.646;8.568;2023-08-12T00:43:01;8.57;;;4.47;;
11827;SDS011;5971;49.646;8.568;2023-08-12T00:46:04;6.18;;;4.45;;
11827;SDS011;5971;49.646;8.568;2023-08-12T00:49:05;6.75;;;4.20;;
11827;SDS011;5971;49.646;8.568;2023-08-12T00:52:07;6.32;;;4.00;;
11827;SDS011;5971;49.646;8.568;2023-08-12T00:55:08;7.80;;;4.28;;
11827;SDS011;5971;49.646;8.568;2023-08-12T00:58:10;5.68;;;4.40;;
11827;SDS011;5971;49.646;8.568;2023-08-12T01:01:12;6.10;;;4.47;;
11827;SDS011;5971;49.646;8.568;2023-08-12T01:04:14;6.82;;;4.53;;
11827;SDS011;5971;49.646;8.568;2023-08-12T01:07:16;7.18;;;4.65;;
11827;SDS011;5971;49.646;8.568;2023-08-12T01:10:17;6.60;;;4.32;;
11827;SDS011;5971;49.646;8.568;2023-08-12T01:13:55;7.18;;;4.20;;
11827;SDS011;5971;49.646;8.568;2023-08-12T01:16:47;6.32;;;3.95;;
11827;SDS011;5971;49.646;8.568;2023-08-12T01:19:48;6.15;;;4.60;;
11827;SDS011;5971;49.646;8.568;2023-08-12T01:22:57;6.55;;;4.30;;
11827;SDS011;5971;49.646;8.568;2023-08-12T01:25:59;5.80;;;3.90;;
11827;SDS011;5971;49.646;8.568;2023-08-12T01:29:00;5.35;;;3.83;;
11827;SDS011;5971;49.646;8.568;2023-08-12T01:35:20;6.00;;;4.70;;
11827;SDS011;5971;49.646;8.568;2023-08-12T01:38:24;8.43;;;4.32;;
11827;SDS011;5971;49.646;8.568;2023-08-12T01:41:28;7.53;;;4.22;;
11827;SDS011;5971;49.646;8.568;2023-08-12T01:44:29;6.38;;;4.00;;
11827;SDS011;5971;49.646;8.568;2023-08-12T01:47:31;5.57;;;3.95;;
11827;SDS011;5971;49.646;8.568;2023-08-12T01:50:33;6.32;;;3.78;;
11827;SDS011;5971;49.646;8.568;2023-08-12T01:53:34;7.40;;;3.80;;
11827;SDS011;5971;49.646;8.568;2023-08-12T01:56:36;6.25;;;4.97;;
11827;SDS011;5971;49.646;8.568;2023-08-12T01:59:37;6.80;;;3.83;;
11827;SDS011;5971;49.646;8.568;2023-08-12T02:02:39;5.45;;;3.92;;
11827;SDS011;5971;49.646;8.568;2023-08-12T02:05:40;5.32;;;3.97;;
11827;SDS011;5971;49.646;8.568;2023-08-12T02:08:43;7.70;;;5.53;;
11827;SDS011;5971;49.646;8.568;2023-08-12T02:11:44;7.00;;;4.22;;
11827;SDS011;5971;49.646;8.568;2023-08-12T02:14:46;6.28;;;4.40;;
11827;SDS011;5971;49.646;8.568;2023-08-12T02:17:47;5.60;;;3.97;;
11827;SDS011;5971;49.646;8.568;2023-08-12T02:20:49;6.30;;;4.05;;
11827;SDS011;5971;49.646;8.568;2023-08-12T02:23:50;6.72;;;5.40;;
11827;SDS011;5971;49.646;8.568;2023-08-12T02:26:52;6.55;;;4.00;;
11827;SDS011;5971;49.646;8.568;2023-08-12T02:29:53;6.32;;;4.20;;
11827;SDS011;5971;49.646;8.568;2023-08-12T02:32:54;6.90;;;5.10;;
11827;SDS011;5971;49.646;8.568;2023-08-12T02:35:56;6.75;;;5.22;;
11827;SDS011;5971;49.646;8.568;2023-08-12T02:38:57;8.68;;;4.47;;
11827;SDS011;5971;49.646;8.568;2023-08-12T02:41:59;7.72;;;4.45;;
11827;SDS011;5971;49.646;8.568;2023-08-12T02:45:00;7.63;;;4.28;;
11827;SDS011;5971;49.646;8.568;2023-08-12T02:48:01;6.50;;;4.18;;
11827;SDS011;5971;49.646;8.568;2023-08-12T02:51:03;6.90;;;4.95;;
11827;SDS011;5971;49.646;8.568;2023-08-12T02:54:04;7.20;;;5.18;;
11827;SDS011;5971;49.646;8.568;2023-08-12T02:57:06;8.68;;;5.10;;
11827;SDS011;5971;49.646;8.568;2023-08-12T03:00:07;7.07;;;4.90;;
11827;SDS011;5971;49.646;8.568;2023-08-12T03:03:09;9.95;;;6.35;;
11827;SDS011;5971;49.646;8.568;2023-08-12T03:06:11;8.85;;;6.07;;
11827;SDS011;5971;49.646;8.568;2023-08-12T03:09:12;7.15;;;5.35;;
11827;SDS011;5971;49.646;8.568;2023-08-12T03:12:16;8.18;;;5.72;;
11827;SDS011;5971;49.646;8.568;2023-08-12T03:15:18;7.65;;;5.65;;
11827;SDS011;5971;49.646;8.568;2023-08-12T03:18:19;9.02;;;5.68;;
11827;SDS011;5971;49.646;8.568;2023-08-12T03:21:20;8.25;;;5.97;;
11827;SDS011;5971;49.646;8.568;2023-08-12T03:24:22;8.20;;;6.53;;
11827;SDS011;5971;49.646;8.568;2023-08-12T03:27:23;9.27;;;5.45;;
11827;SDS011;5971;49.646;8.568;2023-08-12T03:30:24;6.55;;;5.10;;
11827;SDS011;5971;49.646;8.568;2023-08-12T03:33:26;8.02;;;5.38;;
11827;SDS011;5971;49.646;8.568;2023-08-12T03:36:27;9.13;;;6.15;;
11827;SDS011;5971;49.646;8.568;2023-08-12T03:39:28;7.20;;;4.90;;
11827;SDS011;5971;49.646;8.568;2023-08-12T03:42:30;9.63;;;5.13;;
11827;SDS011;5971;49.646;8.568;2023-08-12T03:45:31;6.35;;;4.85;;
11827;SDS011;5971;49.646;8.568;2023-08-12T03:48:33;12.15;;;4.85;;
11827;SDS011;5971;49.646;8.568;2023-08-12T03:51:34;7.60;;;4.93;;
11827;SDS011;5971;49.646;8.568;2023-08-12T03:54:35;7.35;;;5.05;;
11827;SDS011;5971;49.646;8.568;2023-08-12T03:57:37;7.15;;;4.80;;
11827;SDS011;5971;49.646;8.568;2023-08-12T04:00:41;8.00;;;4.95;;
11827;SDS011;5971;49.646;8.568;2023-08-12T04:03:44;7.63;;;5.00;;
11827;SDS011;5971;49.646;8.568;2023-08-12T04:06:45;6.10;;;4.47;;
11827;SDS011;5971;49.646;8.568;2023-08-12T04:09:49;6.68;;;4.40;;
11827;SDS011;5971;49.646;8.568;2023-08-12T04:12:50;7.15;;;4.80;;
11827;SDS011;5971;49.646;8.568;2023-08-12T04:15:52;7.50;;;4.95;;
11827;SDS011;5971;49.646;8.568;2023-08-12T04:18:56;8.10;;;4.63;;
11827;SDS011;5971;49.646;8.568;2023-08-12T04:21:57;7.40;;;5.20;;
11827;SDS011;5971;49.646;8.568;2023-08-12T04:24:59;6.80;;;4.88;;
11827;SDS011;5971;49.646;8.568;2023-08-12T04:28:00;6.43;;;4.68;;
11827;SDS011;5971;49.646;8.568;2023-08-12T04:31:05;6.95;;;4.95;;
11827;SDS011;5971;49.646;8.568;2023-08-12T04:34:07;7.88;;;5.93;;
11827;SDS011;5971;49.646;8.568;2023-08-12T04:37:08;9.27;;;4.75;;
11827;SDS011;5971;49.646;8.568;2023-08-12T04:40:10;6.03;;;4.43;;
11827;SDS011;5971;49.646;8.568;2023-08-12T04:43:12;7.05;;;4.65;;
11827;SDS011;5971;49.646;8.568;2023-08-12T04:46:14;6.53;;;4.82;;
11827;SDS011;5971;49.646;8.568;2023-08-12T04:49:16;7.18;;;5.35;;
11827;SDS011;5971;49.646;8.568;2023-08-12T04:52:17;6.35;;;4.40;;
11827;SDS011;5971;49.646;8.568;2023-08-12T04:55:19;7.63;;;4.60;;
11827;SDS011;5971;49.646;8.568;2023-08-12T04:58:20;7.90;;;5.05;;
11827;SDS011;5971;49.646;8.568;2023-08-12T05:01:22;6.82;;;5.03;;
11827;SDS011;5971;49.646;8.568;2023-08-12T05:04:23;8.23;;;5.03;;
11827;SDS011;5971;49.646;8.568;2023-08-12T05:07:24;6.93;;;4.88;;
11827;SDS011;5971;49.646;8.568;2023-08-12T05:10:26;7.10;;;4.85;;
11827;SDS011;5971;49.646;8.568;2023-08-12T05:13:27;10.30;;;5.80;;
11827;SDS011;5971;49.646;8.568;2023-08-12T05:16:30;7.32;;;4.63;;
11827;SDS011;5971;49.646;8.568;2023-08-12T05:19:32;6.90;;;4.72;;
11827;SDS011;5971;49.646;8.568;2023-08-12T05:22:33;7.05;;;4.78;;
11827;SDS011;5971;49.646;8.568;2023-08-12T05:25:35;6.93;;;5.32;;
11827;SDS011;5971;49.646;8.568;2023-08-12T05:28:36;10.25;;;5.68;;
11827;SDS011;5971;49.646;8.568;2023-08-12T05:31:37;10.18;;;6.22;;
11827;SDS011;5971;49.646;8.568;2023-08-12T05:34:39;7.68;;;5.30;;
11827;SDS011;5971;49.646;8.568;2023-08-12T05:37:40;8.95;;;5.20;;
11827;SDS011;5971;49.646;8.568;2023-08-12T05:40:42;10.55;;;7.80;;
11827;SDS011;5971;49.646;8.568;2023-08-12T05:43:43;8.65;;;5.75;;
11827;SDS011;5971;49.646;8.568;2023-08-12T05:46:45;7.15;;;5.57;;
11827;SDS011;5971;49.646;8.568;2023-08-12T05:49:46;10.40;;;6.32;;
11827;SDS011;5971;49.646;8.568;2023-08-12T05:52:48;7.50;;;5.75;;
11827;SDS011;5971;49.646;8.568;2023-08-12T05:55:49;6.82;;;5.65;;
11827;SDS011;5971;49.646;8.568;2023-08-12T05:58:50;7.55;;;4.93;;
11827;SDS011;5971;49.646;8.568;2023-08-12T06:01:52;7.18;;;4.82;;
11827;SDS011;5971;49.646;8.568;2023-08-12T06:04:53;6.93;;;4.43;;
11827;SDS011;5971;49.646;8.568;2023-08-12T06:07:55;7.88;;;5.50;;
11827;SDS011;5971;49.646;8.568;2023-08-12T06:10:56;6.25;;;5.28;;
11827;SDS011;5971;49.646;8.568;2023-08-12T06:13:57;6.50;;;4.53;;
11827;SDS011;5971;49.646;8.568;2023-08-12T06:16:59;7.90;;;4.93;;
11827;SDS011;5971;49.646;8.568;2023-08-12T06:20:00;6.80;;;4.78;;
11827;SDS011;5971;49.646;8.568;2023-08-12T06:23:02;6.25;;;4.45;;
11827;SDS011;5971;49.646;8.568;2023-08-12T06:26:03;7.10;;;4.97;;
11827;SDS011;5971;49.646;8.568;2023-08-12T06:29:04;8.77;;;4.72;;
11827;SDS011;5971;49.646;8.568;2023-08-12T06:32:06;6.72;;;4.63;;
11827;SDS011;5971;49.646;8.568;2023-08-12T06:35:08;6.18;;;4.53;;
11827;SDS011;5971;49.646;8.568;2023-08-12T06:38:09;7.38;;;4.38;;
11827;SDS011;5971;49.646;8.568;2023-08-12T06:41:11;6.22;;;4.15;;
11827;SDS011;5971;49.646;8.568;2023-08-12T06:44:12;6.72;;;4.20;;
11827;SDS011;5971;49.646;8.568;2023-08-12T06:47:14;8.90;;;4.22;;
11827;SDS011;5971;49.646;8.568;2023-08-12T06:50:15;5.72;;;4.32;;
11827;SDS011;5971;49.646;8.568;2023-08-12T06:53:16;5.55;;;4.28;;
11827;SDS011;5971;49.646;8.568;2023-08-12T06:56:18;6.32;;;4.38;;
11827;SDS011;5971;49.646;8.568;2023-08-12T06:59:19;6.28;;;4.40;;
11827;SDS011;5971;49.646;8.568;2023-08-12T07:02:20;6.60;;;4.30;;
11827;SDS011;5971;49.646;8.568;2023-08-12T07:05:22;7.18;;;4.55;;
11827;SDS011;5971;49.646;8.568;2023-08-12T07:08:23;6.50;;;4.75;;
11827;SDS011;5971;49.646;8.568;2023-08-12T07:11:25;8.20;;;4.88;;
11827;SDS011;5971;49.646;8.568;2023-08-12T07:14:26;6.50;;;4.70;;
11827;SDS011;5971;49.646;8.568;2023-08-12T07:17:29;6.22;;;4.72;;
11827;SDS011;5971;49.646;8.568;2023-08-12T07:20:30;6.13;;;4.20;;
11827;SDS011;5971;49.646;8.568;2023-08-12T07:23:31;7.97;;;4.60;;
11827;SDS011;5971;49.646;8.568;2023-08-12T07:26:33;6.75;;;4.72;;
11827;SDS011;5971;49.646;8.568;2023-08-12T07:29:34;6.30;;;4.55;;
11827;SDS011;5971;49.646;8.568;2023-08-12T07:32:36;6.63;;;4.75;;
11827;SDS011;5971;49.646;8.568;2023-08-12T07:35:37;7.03;;;4.05;;
11827;SDS011;5971;49.646;8.568;2023-08-12T07:38:39;6.78;;;4.78;;
11827;SDS011;5971;49.646;8.568;2023-08-12T07:41:40;9.00;;;4.68;;
11827;SDS011;5971;49.646;8.568;2023-08-12T07:44:42;6.97;;;4.63;;
11827;SDS011;5971;49.646;8.568;2023-08-12T07:47:43;7.38;;;4.88;;
11827;SDS011;5971;49.646;8.568;2023-08-12T07:50:45;6.57;;;4.55;;
11827;SDS011;5971;49.646;8.568;2023-08-12T07:53:46;7.53;;;4.75;;
11827;SDS011;5971;49.646;8.568;2023-08-12T07:56:47;7.18;;;4.85;;
11827;SDS011;5971;49.646;8.568;2023-08-12T07:59:52;7.85;;;5.13;;
11827;SDS011;5971;49.646;8.568;2023-08-12T08:02:53;6.95;;;5.03;;
11827;SDS011;5971;49.646;8.568;2023-08-12T08:05:55;7.60;;;5.15;;
11827;SDS011;5971;49.646;8.568;2023-08-12T08:08:56;8.73;;;5.30;;
11827;SDS011;5971;49.646;8.568;2023-08-12T08:11:58;8.25;;;5.38;;
11827;SDS011;5971;49.646;8.568;2023-08-12T08:14:59;8.45;;;5.95;;
11827;SDS011;5971;49.646;8.568;2023-08-12T08:18:00;6.22;;;4.50;;
11827;SDS011;5971;49.646;8.568;2023-08-12T08:21:05;7.97;;;4.65;;
11827;SDS011;5971;49.646;8.568;2023-08-12T08:24:07;7.03;;;4.55;;
11827;SDS011;5971;49.646;8.568;2023-08-12T08:27:09;5.97;;;4.55;;
11827;SDS011;5971;49.646;8.568;2023-08-12T08:30:11;6.53;;;4.80;;
11827;SDS011;5971;49.646;8.568;2023-08-12T08:33:12;7.00;;;5.40;;
11827;SDS011;5971;49.646;8.568;2023-08-12T08:36:13;5.32;;;4.15;;
11827;SDS011;5971;49.646;8.568;2023-08-12T08:39:15;6.00;;;4.20;;
11827;SDS011;5971;49.646;8.568;2023-08-12T08:42:17;7.22;;;5.35;;
11827;SDS011;5971;49.646;8.568;2023-08-12T08:45:21;6.60;;;4.28;;
11827;SDS011;5971;49.646;8.568;2023-08-12T08:48:23;6.20;;;5.22;;
11827;SDS011;5971;49.646;8.568;2023-08-12T08:51:24;6.40;;;4.47;;
11827;SDS011;5971;49.646;8.568;2023-08-12T08:54:26;5.93;;;4.22;;
11827;SDS011;5971;49.646;8.568;2023-08-12T08:57:28;5.03;;;4.10;;
11827;SDS011;5971;49.646;8.568;2023-08-12T09:00:48;7.30;;;4.05;;
11827;SDS011;5971;49.646;8.568;2023-08-12T09:03:50;5.55;;;4.50;;
11827;SDS011;5971;49.646;8.568;2023-08-12T09:06:53;5.43;;;4.20;;
11827;SDS011;5971;49.646;8.568;2023-08-12T09:09:55;6.47;;;4.60;;
11827;SDS011;5971;49.646;8.568;2023-08-12T09:12:57;5.50;;;4.20;;
11827;SDS011;5971;49.646;8.568;2023-08-12T09:16:00;6.88;;;4.70;;
11827;SDS011;5971;49.646;8.568;2023-08-12T09:19:01;8.40;;;5.05;;
11827;SDS011;5971;49.646;8.568;2023-08-12T09:22:03;6.68;;;5.10;;
11827;SDS011;5971;49.646;8.568;2023-08-12T09:28:07;6.43;;;4.72;;
11827;SDS011;5971;49.646;8.568;2023-08-12T09:31:26;6.72;;;4.75;;
11827;SDS011;5971;49.646;8.568;2023-08-12T09:34:28;5.40;;;4.35;;
11827;SDS011;5971;49.646;8.568;2023-08-12T09:37:29;5.03;;;4.32;;
11827;SDS011;5971;49.646;8.568;2023-08-12T09:40:31;6.97;;;4.00;;
11827;SDS011;5971;49.646;8.568;2023-08-12T09:43:33;8.27;;;4.50;;
11827;SDS011;5971;49.646;8.568;2023-08-12T09:46:35;7.20;;;4.70;;
11827;SDS011;5971;49.646;8.568;2023-08-12T09:49:37;6.80;;;4.68;;
11827;SDS011;5971;49.646;8.568;2023-08-12T09:52:40;5.82;;;4.18;;
11827;SDS011;5971;49.646;8.568;2023-08-12T09:55:41;5.55;;;4.47;;
11827;SDS011;5971;49.646;8.568;2023-08-12T09:58:43;6.43;;;3.65;;
11827;SDS011;5971;49.646;8.568;2023-08-12T10:01:45;6.22;;;4.55;;
11827;SDS011;5971;49.646;8.568;2023-08-12T10:04:47;5.57;;;4.10;;
11827;SDS011;5971;49.646;8.568;2023-08-12T10:07:52;5.68;;;4.07;;
11827;SDS011;5971;49.646;8.568;2023-08-12T10:10:53;5.85;;;4.53;;
11827;SDS011;5971;49.646;8.568;2023-08-12T10:14:12;5.97;;;3.90;;
11827;SDS011;5971;49.646;8.568;2023-08-12T10:17:13;11.20;;;4.25;;
11827;SDS011;5971;49.646;8.568;2023-08-12T10:23:31;6.30;;;3.60;;
11827;SDS011;5971;49.646;8.568;2023-08-12T10:26:32;9.32;;;5.32;;
11827;SDS011;5971;49.646;8.568;2023-08-12T10:29:34;7.30;;;4.10;;
11827;SDS011;5971;49.646;8.568;2023-08-12T10:32:36;5.70;;;4.13;;
11827;SDS011;5971;49.646;8.568;2023-08-12T10:35:41;6.95;;;4.38;;
11827;SDS011;5971;49.646;8.568;2023-08-12T10:38:43;7.15;;;4.47;;
11827;SDS011;5971;49.646;8.568;2023-08-12T10:41:51;6.38;;;4.15;;
11827;SDS011;5971;49.646;8.568;2023-08-12T10:44:57;6.18;;;3.53;;
11827;SDS011;5971;49.646;8.568;2023-08-12T10:51:00;4.32;;;3.28;;
11827;SDS011;5971;49.646;8.568;2023-08-12T10:54:09;4.03;;;3.08;;
11827;SDS011;5971;49.646;8.568;2023-08-12T11:00:13;5.53;;;4.22;;
11827;SDS011;5971;49.646;8.568;2023-08-12T11:03:15;7.07;;;4.50;;
11827;SDS011;5971;49.646;8.568;2023-08-12T11:06:17;6.85;;;4.03;;
11827;SDS011;5971;49.646;8.568;2023-08-12T11:09:20;7.68;;;4.38;;
11827;SDS011;5971;49.646;8.568;2023-08-12T11:12:32;7.53;;;4.35;;
11827;SDS011;5971;49.646;8.568;2023-08-12T11:15:35;8.23;;;3.67;;
11827;SDS011;5971;49.646;8.568;2023-08-12T11:18:38;5.38;;;3.10;;
11827;SDS011;5971;49.646;8.568;2023-08-12T11:21:40;8.30;;;3.38;;
11827;SDS011;5971;49.646;8.568;2023-08-12T11:24:42;6.43;;;3.45;;
11827;SDS011;5971;49.646;8.568;2023-08-12T11:27:45;9.85;;;3.88;;
11827;SDS011;5971;49.646;8.568;2023-08-12T11:30:46;6.10;;;3.53;;
11827;SDS011;5971;49.646;8.568;2023-08-12T11:33:48;8.75;;;3.28;;
11827;SDS011;5971;49.646;8.568;2023-08-12T11:36:49;13.25;;;4.15;;
11827;SDS011;5971;49.646;8.568;2023-08-12T11:39:52;7.10;;;3.90;;
11827;SDS011;5971;49.646;8.568;2023-08-12T11:42:53;7.32;;;3.55;;
11827;SDS011;5971;49.646;8.568;2023-08-12T11:45:55;6.57;;;3.13;;
11827;SDS011;5971;49.646;8.568;2023-08-12T11:48:57;5.82;;;3.25;;
11827;SDS011;5971;49.646;8.568;2023-08-12T11:51:58;6.88;;;4.15;;
11827;SDS011;5971;49.646;8.568;2023-08-12T11:55:00;7.40;;;4.85;;
11827;SDS011;5971;49.646;8.568;2023-08-12T11:58:02;8.60;;;5.60;;
11827;SDS011;5971;49.646;8.568;2023-08-12T12:01:03;8.23;;;5.07;;
11827;SDS011;5971;49.646;8.568;2023-08-12T12:04:05;8.68;;;5.07;;
11827;SDS011;5971;49.646;8.568;2023-08-12T12:07:16;8.15;;;5.35;;
11827;SDS011;5971;49.646;8.568;2023-08-12T12:10:26;9.32;;;4.85;;
11827;SDS011;5971;49.646;8.568;2023-08-12T12:13:33;9.68;;;5.03;;
11827;SDS011;5971;49.646;8.568;2023-08-12T12:19:43;7.82;;;4.18;;
11827;SDS011;5971;49.646;8.568;2023-08-12T12:22:44;4.68;;;3.10;;
11827;SDS011;5971;49.646;8.568;2023-08-12T12:25:46;6.10;;;3.47;;
11827;SDS011;5971;49.646;8.568;2023-08-12T12:28:47;5.47;;;2.92;;
11827;SDS011;5971;49.646;8.568;2023-08-12T12:31:49;3.97;;;2.35;;
11827;SDS011;5971;49.646;8.568;2023-08-12T12:34:50;2.95;;;1.75;;
11827;SDS011;5971;49.646;8.568;2023-08-12T12:37:52;3.60;;;1.45;;
11827;SDS011;5971;49.646;8.568;2023-08-12T12:40:53;2.28;;;1.23;;
11827;SDS011;5971;49.646;8.568;2023-08-12T12:43:55;2.17;;;1.17;;
11827;SDS011;5971;49.646;8.568;2023-08-12T12:46:56;1.83;;;0.90;;
11827;SDS011;5971;49.646;8.568;2023-08-12T12:49:58;2.45;;;0.70;;
11827;SDS011;5971;49.646;8.568;2023-08-12T12:52:59;2.78;;;1.30;;
11827;SDS011;5971;49.646;8.568;2023-08-12T12:56:00;1.40;;;1.10;;
11827;SDS011;5971;49.646;8.568;2023-08-12T12:59:05;1.58;;;0.88;;
11827;SDS011;5971;49.646;8.568;2023-08-12T13:02:06;2.17;;;1.00;;
11827;SDS011;5971;49.646;8.568;2023-08-12T13:05:08;2.03;;;1.25;;
11827;SDS011;5971;49.646;8.568;2023-08-12T13:08:10;1.88;;;1.33;;
11827;SDS011;5971;49.646;8.568;2023-08-12T13:11:11;2.45;;;1.23;;
11827;SDS011;5971;49.646;8.568;2023-08-12T13:14:12;2.35;;;1.42;;
11827;SDS011;5971;49.646;8.568;2023-08-12T13:17:14;1.85;;;1.00;;
11827;SDS011;5971;49.646;8.568;2023-08-12T13:20:16;2.47;;;1.55;;
11827;SDS011;5971;49.646;8.568;2023-08-12T13:23:17;3.10;;;1.33;;
11827;SDS011;5971;49.646;8.568;2023-08-12T13:26:19;2.83;;;1.27;;
11827;SDS011;5971;49.646;8.568;2023-08-12T13:29:21;2.90;;;1.33;;
11827;SDS011;5971;49.646;8.568;2023-08-12T13:32:22;3.38;;;1.30;;
11827;SDS011;5971;49.646;8.568;2023-08-12T13:35:23;2.40;;;1.30;;
11827;SDS011;5971;49.646;8.568;2023-08-12T13:38:25;2.20;;;1.20;;
11827;SDS011;5971;49.646;8.568;2023-08-12T13:41:26;2.17;;;1.17;;
11827;SDS011;5971;49.646;8.568;2023-08-12T13:44:28;2.42;;;1.40;;
11827;SDS011;5971;49.646;8.568;2023-08-12T13:47:29;2.63;;;1.30;;
11827;SDS011;5971;49.646;8.568;2023-08-12T13:50:30;3.30;;;1.27;;
11827;SDS011;5971;49.646;8.568;2023-08-12T13:56:35;2.50;;;1.20;;
11827;SDS011;5971;49.646;8.568;2023-08-12T13:59:36;1.92;;;1.15;;
11827;SDS011;5971;49.646;8.568;2023-08-12T14:02:38;2.13;;;1.30;;
11827;SDS011;5971;49.646;8.568;2023-08-12T14:05:39;2.10;;;1.20;;
11827;SDS011;5971;49.646;8.568;2023-08-12T14:08:40;2.13;;;1.20;;
11827;SDS011;5971;49.646;8.568;2023-08-12T14:11:42;2.65;;;1.65;;
11827;SDS011;5971;49.646;8.568;2023-08-12T14:14:43;2.53;;;1.95;;
11827;SDS011;5971;49.646;8.568;2023-08-12T14:17:45;1.90;;;1.27;;
11827;SDS011;5971;49.646;8.568;2023-08-12T14:20:46;2.63;;;1.80;;
11827;SDS011;5971;49.646;8.568;2023-08-12T14:23:47;3.17;;;1.70;;
11827;SDS011;5971;49.646;8.568;2023-08-12T14:26:49;4.70;;;2.28;;
11827;SDS011;5971;49.646;8.568;2023-08-12T14:29:50;2.95;;;1.50;;
11827;SDS011;5971;49.646;8.568;2023-08-12T14:32:52;2.83;;;1.50;;
11827;SDS011;5971;49.646;8.568;2023-08-12T14:35:57;2.53;;;1.70;;
11827;SDS011;5971;49.646;8.568;2023-08-12T14:38:58;2.97;;;1.50;;
11827;SDS011;5971;49.646;8.568;2023-08-12T14:41:59;3.45;;;1.60;;
11827;SDS011;5971;49.646;8.568;2023-08-12T14:45:01;2.90;;;1.70;;
11827;SDS011;5971;49.646;8.568;2023-08-12T14:48:12;2.40;;;1.50;;
11827;SDS011;5971;49.646;8.568;2023-08-12T14:51:16;4.00;;;1.95;;
11827;SDS011;5971;49.646;8.568;2023-08-12T14:54:17;3.30;;;1.90;;
11827;SDS011;5971;49.646;8.568;2023-08-12T14:57:18;2.60;;;1.95;;
11827;SDS011;5971;49.646;8.568;2023-08-12T15:00:20;3.33;;;2.17;;
11827;SDS011;5971;49.646;8.568;2023-08-12T15:03:21;3.20;;;1.80;;
11827;SDS011;5971;49.646;8.568;2023-08-12T15:06:23;3.20;;;1.70;;
11827;SDS011;5971;49.646;8.568;2023-08-12T15:09:24;3.22;;;1.80;;
11827;SDS011;5971;49.646;8.568;2023-08-12T15:12:26;2.90;;;2.17;;
11827;SDS011;5971;49.646;8.568;2023-08-12T15:15:28;3.65;;;2.10;;
11827;SDS011;5971;49.646;8.568;2023-08-12T15:18:29;4.15;;;2.22;;
11827;SDS011;5971;49.646;8.568;2023-08-12T15:21:31;8.60;;;2.40;;
11827;SDS011;5971;49.646;8.568;2023-08-12T15:24:32;4.32;;;2.60;;
11827;SDS011;5971;49.646;8.568;2023-08-12T15:27:34;3.67;;;2.88;;
11827;SDS011;5971;49.646;8.568;2023-08-12T15:30:35;3.72;;;2.17;;
11827;SDS011;5971;49.646;8.568;2023-08-12T15:33:37;5.93;;;2.83;;
11827;SDS011;5971;49.646;8.568;2023-08-12T15:36:38;4.10;;;2.40;;
11827;SDS011;5971;49.646;8.568;2023-08-12T15:39:42;3.95;;;2.50;;
11827;SDS011;5971;49.646;8.568;2023-08-12T15:42:43;4.00;;;2.58;;
11827;SDS011;5971;49.646;8.568;2023-08-12T15:45:47;5.57;;;2.95;;
11827;SDS011;5971;49.646;8.568;2023-08-12T15:48:48;6.00;;;3.28;;
11827;SDS011;5971;49.646;8.568;2023-08-12T15:51:50;5.22;;;3.28;;
11827;SDS011;5971;49.646;8.568;2023-08-12T15:54:51;5.97;;;3.15;;
11827;SDS011;5971;49.646;8.568;2023-08-12T15:57:53;5.78;;;3.83;;
11827;SDS011;5971;49.646;8.568;2023-08-12T16:00:54;5.55;;;3.28;;
11827;SDS011;5971;49.646;8.568;2023-08-12T16:03:55;5.93;;;3.30;;
11827;SDS011;5971;49.646;8.568;2023-08-12T16:06:57;5.20;;;3.53;;
11827;SDS011;5971;49.646;8.568;2023-08-12T16:09:58;6.68;;;3.35;;
11827;SDS011;5971;49.646;8.568;2023-08-12T16:12:59;5.07;;;3.38;;
11827;SDS011;5971;49.646;8.568;2023-08-12T16:16:01;5.15;;;3.38;;
11827;SDS011;5971;49.646;8.568;2023-08-12T16:19:02;5.07;;;3.42;;
11827;SDS011;5971;49.646;8.568;2023-08-12T16:22:04;6.05;;;3.65;;
11827;SDS011;5971;49.646;8.568;2023-08-12T16:25:05;6.60;;;3.70;;
11827;SDS011;5971;49.646;8.568;2023-08-12T16:28:08;6.22;;;3.67;;
11827;SDS011;5971;49.646;8.568;2023-08-12T16:31:10;5.32;;;3.60;;
11827;SDS011;5971;49.646;8.568;2023-08-12T16:34:11;5.53;;;3.42;;
11827;SDS011;5971;49.646;8.568;2023-08-12T16:37:12;5.60;;;3.50;;
11827;SDS011;5971;49.646;8.568;2023-08-12T16:40:22;6.45;;;3.85;;
11827;SDS011;5971;49.646;8.568;2023-08-12T16:43:23;5.22;;;3.28;;
11827;SDS011;5971;49.646;8.568;2023-08-12T16:46:25;5.93;;;3.38;;
11827;SDS011;5971;49.646;8.568;2023-08-12T16:49:26;5.85;;;3.97;;
11827;SDS011;5971;49.646;8.568;2023-08-12T16:52:27;5.72;;;3.75;;
11827;SDS011;5971;49.646;8.568;2023-08-12T16:55:29;5.95;;;3.60;;
11827;SDS011;5971;49.646;8.568;2023-08-12T16:58:30;5.13;;;3.88;;
11827;SDS011;5971;49.646;8.568;2023-08-12T17:01:34;5.30;;;3.63;;
11827;SDS011;5971;49.646;8.568;2023-08-12T17:04:35;5.18;;;3.50;;
11827;SDS011;5971;49.646;8.568;2023-08-12T17:07:37;5.18;;;3.88;;
11827;SDS011;5971;49.646;8.568;2023-08-12T17:10:38;8.73;;;4.60;;
11827;SDS011;5971;49.646;8.568;2023-08-12T17:13:42;6.30;;;4.30;;
11827;SDS011;5971;49.646;8.568;2023-08-12T17:16:43;7.20;;;3.88;;
11827;SDS011;5971;49.646;8.568;2023-08-12T17:19:44;6.50;;;4.00;;
11827;SDS011;5971;49.646;8.568;2023-08-12T17:22:46;7.15;;;4.18;;
11827;SDS011;5971;49.646;8.568;2023-08-12T17:25:47;5.40;;;3.92;;
11827;SDS011;5971;49.646;8.568;2023-08-12T17:28:49;7.07;;;5.25;;
11827;SDS011;5971;49.646;8.568;2023-08-12T17:31:52;6.63;;;4.22;;
11827;SDS011;5971;49.646;8.568;2023-08-12T17:34:53;6.88;;;4.15;;
11827;SDS011;5971;49.646;8.568;2023-08-12T17:37:57;7.18;;;4.60;;
11827;SDS011;5971;49.646;8.568;2023-08-12T17:40:58;7.03;;;4.10;;
11827;SDS011;5971;49.646;8.568;2023-08-12T17:44:00;8.20;;;4.32;;
11827;SDS011;5971;49.646;8.568;2023-08-12T17:47:01;5.45;;;3.80;;
11827;SDS011;5971;49.646;8.568;2023-08-12T17:50:03;6.43;;;4.18;;
11827;SDS011;5971;49.646;8.568;2023-08-12T17:53:04;7.30;;;4.47;;
11827;SDS011;5971;49.646;8.568;2023-08-12T17:56:06;6.80;;;4.93;;
11827;SDS011;5971;49.646;8.568;2023-08-12T17:59:07;5.80;;;4.28;;
11827;SDS011;5971;49.646;8.568;2023-08-12T18:02:09;6.78;;;4.47;;
11827;SDS011;5971;49.646;8.568;2023-08-12T18:05:10;6.68;;;4.60;;
11827;SDS011;5971;49.646;8.568;2023-08-12T18:08:12;7.97;;;4.50;;
11827;SDS011;5971;49.646;8.568;2023-08-12T18:11:13;6.18;;;4.68;;
11827;SDS011;5971;49.646;8.568;2023-08-12T18:14:15;5.72;;;4.30;;
11827;SDS011;5971;49.646;8.568;2023-08-12T18:17:16;6.28;;;4.18;;
11827;SDS011;5971;49.646;8.568;2023-08-12T18:20:18;4.45;;;3.55;;
11827;SDS011;5971;49.646;8.568;2023-08-12T18:23:19;5.78;;;3.20;;
11827;SDS011;5971;49.646;8.568;2023-08-12T18:26:21;5.55;;;3.28;;
11827;SDS011;5971;49.646;8.568;2023-08-12T18:29:22;5.32;;;3.05;;
11827;SDS011;5971;49.646;8.568;2023-08-12T18:32:24;4.95;;;2.60;;
11827;SDS011;5971;49.646;8.568;2023-08-12T18:35:29;5.65;;;2.95;;
11827;SDS011;5971;49.646;8.568;2023-08-12T18:38:31;5.05;;;2.72;;
11827;SDS011;5971;49.646;8.568;2023-08-12T18:41:32;4.90;;;2.20;;
11827;SDS011;5971;49.646;8.568;2023-08-12T18:44:34;4.97;;;2.20;;
11827;SDS011;5971;49.646;8.568;2023-08-12T18:47:35;5.03;;;2.10;;
11827;SDS011;5971;49.646;8.568;2023-08-12T18:50:37;6.00;;;2.40;;
11827;SDS011;5971;49.646;8.568;2023-08-12T18:53:38;6.28;;;2.65;;